Aviation Digital Data Service (ADDS)

Output produced by METARs form (0618 UTC 19 February 2019)
found at http://www.aviationweather.gov/metar/data/
 
METAR text: FABL 190600Z 03011KT CAVOK 18/14 Q1021 NOSIG
Conditions at: FABL (BLOEMFONTEIN/HER, ZA) observed 0600 UTC 19 February 2019
Temperature: 18.0°C (64°F)
Dewpoint: 14.0°C (57°F) [RH = 77%]
Pressure (altimeter): 30.15 inches Hg (1021.0 mb)
Winds: from the NNE (30 degrees) at 13 MPH (11 knots; 5.7 m/s)
Visibility: 6 or more miles (10+ km)
Ceiling: ceiling and visibility are OK
Clouds: unknown
Weather: no significant weather observed at this time

METAR text: FABL 190500Z 04007KT CAVOK 16/13 Q1021 NOSIG
Conditions at: FABL (BLOEMFONTEIN/HER, ZA) observed 0500 UTC 19 February 2019
Temperature: 16.0°C (61°F)
Dewpoint: 13.0°C (55°F) [RH = 82%]
Pressure (altimeter): 30.15 inches Hg (1021.0 mb)
Winds: from the NE (40 degrees) at 8 MPH (7 knots; 3.6 m/s)
Visibility: 6 or more miles (10+ km)
Ceiling: ceiling and visibility are OK
Clouds: unknown
Weather: no significant weather observed at this time

METAR text: FABL 190400Z 03008KT CAVOK 14/11 Q1020 NOSIG
Conditions at: FABL (BLOEMFONTEIN/HER, ZA) observed 0400 UTC 19 February 2019
Temperature: 14.0°C (57°F)
Dewpoint: 11.0°C (52°F) [RH = 82%]
Pressure (altimeter): 30.12 inches Hg (1020.0 mb)
Winds: from the NNE (30 degrees) at 9 MPH (8 knots; 4.1 m/s)
Visibility: 6 or more miles (10+ km)
Ceiling: ceiling and visibility are OK
Clouds: unknown
Weather: no significant weather observed at this time

METAR text: FABL 190300Z 06004KT CAVOK 15/11 Q1020 NOSIG
Conditions at: FABL (BLOEMFONTEIN/HER, ZA) observed 0300 UTC 19 February 2019
Temperature: 15.0°C (59°F)
Dewpoint: 11.0°C (52°F) [RH = 77%]
Pressure (altimeter): 30.12 inches Hg (1020.0 mb)
Winds: from the ENE (60 degrees) at 5 MPH (4 knots; 2.1 m/s)
Visibility: 6 or more miles (10+ km)
Ceiling: ceiling and visibility are OK
Clouds: unknown
Weather: no significant weather observed at this time

METAR text: FABL 190200Z AUTO 14003KT 090V240 9999 ///////// 15/11 Q1020
Conditions at: FABL (BLOEMFONTEIN/HER, ZA) observed 0200 UTC 19 February 2019
Temperature: 15.0°C (59°F)
Dewpoint: 11.0°C (52°F) [RH = 77%]
Pressure (altimeter): 30.12 inches Hg (1020.0 mb)
Winds: from the SE (140 degrees) at 3 MPH (3 knots; 1.5 m/s)
Visibility: 6 or more miles (10+ km)
Ceiling: unknown
Clouds: missing
Weather: no significant weather observed at this time

METAR text: FABL 190100Z AUTO 09003KT 9999 ///////// 16/11 Q1019
Conditions at: FABL (BLOEMFONTEIN/HER, ZA) observed 0100 UTC 19 February 2019
Temperature: 16.0°C (61°F)
Dewpoint: 11.0°C (52°F) [RH = 72%]
Pressure (altimeter): 30.09 inches Hg (1019.0 mb)
Winds: from the E (90 degrees) at 3 MPH (3 knots; 1.5 m/s)
Visibility: 6 or more miles (10+ km)
Ceiling: unknown
Clouds: missing
Weather: no significant weather observed at this time

METAR text: FABL 190000Z AUTO 22002KT 9999 ///////// 15/13 Q1019
Conditions at: FABL (BLOEMFONTEIN/HER, ZA) observed 0000 UTC 19 February 2019
Temperature: 15.0°C (59°F)
Dewpoint: 13.0°C (55°F) [RH = 88%]
Pressure (altimeter): 30.09 inches Hg (1019.0 mb)
Winds: from the SW (220 degrees) at 2 MPH (2 knots; 1.0 m/s)
Visibility: 6 or more miles (10+ km)
Ceiling: unknown
Clouds: missing
Weather: no significant weather observed at this time

METAR text: FABL 182300Z AUTO 21003KT 160V270 9999 ///////// 15/13 Q1020
Conditions at: FABL (BLOEMFONTEIN/HER, ZA) observed 2300 UTC 18 February 2019
Temperature: 15.0°C (59°F)
Dewpoint: 13.0°C (55°F) [RH = 88%]
Pressure (altimeter): 30.12 inches Hg (1020.0 mb)
Winds: from the SSW (210 degrees) at 3 MPH (3 knots; 1.5 m/s)
Visibility: 6 or more miles (10+ km)
Ceiling: unknown
Clouds: missing
Weather: no significant weather observed at this time

METAR text: FABL 182200Z AUTO VRB02KT 9999 ///////// 16/13 Q1020
Conditions at: FABL (BLOEMFONTEIN/HER, ZA) observed 2200 UTC 18 February 2019
Temperature: 16.0°C (61°F)
Dewpoint: 13.0°C (55°F) [RH = 82%]
Pressure (altimeter): 30.12 inches Hg (1020.0 mb)
Winds: variable direction winds at 2 MPH (2 knots; 1.0 m/s)
Visibility: 6 or more miles (10+ km)
Ceiling: unknown
Clouds: missing
Weather: no significant weather observed at this time

METAR text: FABL 182100Z AUTO 14004KT 9999 ///////// 19/13 Q1020
Conditions at: FABL (BLOEMFONTEIN/HER, ZA) observed 2100 UTC 18 February 2019
Temperature: 19.0°C (66°F)
Dewpoint: 13.0°C (55°F) [RH = 68%]
Pressure (altimeter): 30.12 inches Hg (1020.0 mb)
Winds: from the SE (140 degrees) at 5 MPH (4 knots; 2.1 m/s)
Visibility: 6 or more miles (10+ km)
Ceiling: unknown
Clouds: missing
Weather: no significant weather observed at this time

METAR text: FABL 182000Z AUTO 15005KT 9999 ///////// 19/13 Q1020
Conditions at: FABL (BLOEMFONTEIN/HER, ZA) observed 2000 UTC 18 February 2019
Temperature: 19.0°C (66°F)
Dewpoint: 13.0°C (55°F) [RH = 68%]
Pressure (altimeter): 30.12 inches Hg (1020.0 mb)
Winds: from the SSE (150 degrees) at 6 MPH (5 knots; 2.6 m/s)
Visibility: 6 or more miles (10+ km)
Ceiling: unknown
Clouds: missing
Weather: no significant weather observed at this time

METAR text: FABL 181900Z AUTO 23003KT 9999 ///////// 21/13 Q1020
Conditions at: FABL (BLOEMFONTEIN/HER, ZA) observed 1900 UTC 18 February 2019
Temperature: 21.0°C (70°F)
Dewpoint: 13.0°C (55°F) [RH = 60%]
Pressure (altimeter): 30.12 inches Hg (1020.0 mb)
Winds: from the SW (230 degrees) at 3 MPH (3 knots; 1.5 m/s)
Visibility: 6 or more miles (10+ km)
Ceiling: unknown
Clouds: missing
Weather: no significant weather observed at this time

METAR text: FABL 181800Z 21005KT CAVOK 23/11 Q1019 NOSIG
Conditions at: FABL (BLOEMFONTEIN/HER, ZA) observed 1800 UTC 18 February 2019
Temperature: 23.0°C (73°F)
Dewpoint: 11.0°C (52°F) [RH = 47%]
Pressure (altimeter): 30.09 inches Hg (1019.0 mb)
Winds: from the SSW (210 degrees) at 6 MPH (5 knots; 2.6 m/s)
Visibility: 6 or more miles (10+ km)
Ceiling: ceiling and visibility are OK
Clouds: unknown
Weather: no significant weather observed at this time

METAR text: FABL 181700Z 19008KT 9999 FEW045 24/10 Q1019 NOSIG
Conditions at: FABL (BLOEMFONTEIN/HER, ZA) observed 1700 UTC 18 February 2019
Temperature: 24.0°C (75°F)
Dewpoint: 10.0°C (50°F) [RH = 41%]
Pressure (altimeter): 30.09 inches Hg (1019.0 mb)
Winds: from the S (190 degrees) at 9 MPH (8 knots; 4.1 m/s)
Visibility: 6 or more miles (10+ km)
Ceiling: at least 12,000 feet AGL
Clouds: few clouds at 4500 feet AGL
Weather: no significant weather observed at this time

METAR text: FABL 181600Z 21008KT 9999 FEW045 28/09 Q1019 NOSIG
Conditions at: FABL (BLOEMFONTEIN/HER, ZA) observed 1600 UTC 18 February 2019
Temperature: 28.0°C (82°F)
Dewpoint: 9.0°C (48°F) [RH = 30%]
Pressure (altimeter): 30.09 inches Hg (1019.0 mb)
Winds: from the SSW (210 degrees) at 9 MPH (8 knots; 4.1 m/s)
Visibility: 6 or more miles (10+ km)
Ceiling: at least 12,000 feet AGL
Clouds: few clouds at 4500 feet AGL
Weather: no significant weather observed at this time

METAR text: FABL 181500Z 20005KT 150V260 9999 FEW045 28/10 Q1019 NOSIG
Conditions at: FABL (BLOEMFONTEIN/HER, ZA) observed 1500 UTC 18 February 2019
Temperature: 28.0°C (82°F)
Dewpoint: 10.0°C (50°F) [RH = 32%]
Pressure (altimeter): 30.09 inches Hg (1019.0 mb)
Winds: from the SSW (200 degrees) at 6 MPH (5 knots; 2.6 m/s)
Visibility: 6 or more miles (10+ km)
Ceiling: at least 12,000 feet AGL
Clouds: few clouds at 4500 feet AGL
Weather: no significant weather observed at this time

METAR text: FABL 181400Z 21006KT 170V270 9999 FEW045 28/09 Q1019 NOSIG
Conditions at: FABL (BLOEMFONTEIN/HER, ZA) observed 1400 UTC 18 February 2019
Temperature: 28.0°C (82°F)
Dewpoint: 9.0°C (48°F) [RH = 30%]
Pressure (altimeter): 30.09 inches Hg (1019.0 mb)
Winds: from the SSW (210 degrees) at 7 MPH (6 knots; 3.1 m/s)
Visibility: 6 or more miles (10+ km)
Ceiling: at least 12,000 feet AGL
Clouds: few clouds at 4500 feet AGL
Weather: no significant weather observed at this time

METAR text: FABL 181300Z VRB03KT 9999 FEW045 28/11 Q1019 NOSIG
Conditions at: FABL (BLOEMFONTEIN/HER, ZA) observed 1300 UTC 18 February 2019
Temperature: 28.0°C (82°F)
Dewpoint: 11.0°C (52°F) [RH = 35%]
Pressure (altimeter): 30.09 inches Hg (1019.0 mb)
Winds: variable direction winds at 3 MPH (3 knots; 1.5 m/s)
Visibility: 6 or more miles (10+ km)
Ceiling: at least 12,000 feet AGL
Clouds: few clouds at 4500 feet AGL
Weather: no significant weather observed at this time

METAR text: FABL 181200Z 32004KT CAVOK 28/12 Q1021 NOSIG
Conditions at: FABL (BLOEMFONTEIN/HER, ZA) observed 1200 UTC 18 February 2019
Temperature: 28.0°C (82°F)
Dewpoint: 12.0°C (54°F) [RH = 37%]
Pressure (altimeter): 30.15 inches Hg (1021.0 mb)
Winds: from the NW (320 degrees) at 5 MPH (4 knots; 2.1 m/s)
Visibility: 6 or more miles (10+ km)
Ceiling: ceiling and visibility are OK
Clouds: unknown
Weather: no significant weather observed at this time

METAR text: FABL 181100Z VRB04KT CAVOK 26/09 Q1020 NOSIG
Conditions at: FABL (BLOEMFONTEIN/HER, ZA) observed 1100 UTC 18 February 2019
Temperature: 26.0°C (79°F)
Dewpoint: 9.0°C (48°F) [RH = 34%]
Pressure (altimeter): 30.12 inches Hg (1020.0 mb)
Winds: variable direction winds at 5 MPH (4 knots; 2.1 m/s)
Visibility: 6 or more miles (10+ km)
Ceiling: ceiling and visibility are OK
Clouds: unknown
Weather: no significant weather observed at this time

METAR text: FABL 181000Z 35005KT 300V110 CAVOK 25/12 Q1021 NOSIG
Conditions at: FABL (BLOEMFONTEIN/HER, ZA) observed 1000 UTC 18 February 2019
Temperature: 25.0°C (77°F)
Dewpoint: 12.0°C (54°F) [RH = 44%]
Pressure (altimeter): 30.15 inches Hg (1021.0 mb)
Winds: from the N (350 degrees) at 6 MPH (5 knots; 2.6 m/s)
Visibility: 6 or more miles (10+ km)
Ceiling: ceiling and visibility are OK
Clouds: unknown
Weather: no significant weather observed at this time

METAR text: FABL 180900Z 34004KT 280V070 CAVOK 23/13 Q1022 NOSIG
Conditions at: FABL (BLOEMFONTEIN/HER, ZA) observed 0900 UTC 18 February 2019
Temperature: 23.0°C (73°F)
Dewpoint: 13.0°C (55°F) [RH = 53%]
Pressure (altimeter): 30.18 inches Hg (1022.0 mb)
Winds: from the NNW (340 degrees) at 5 MPH (4 knots; 2.1 m/s)
Visibility: 6 or more miles (10+ km)
Ceiling: ceiling and visibility are OK
Clouds: unknown
Weather: no significant weather observed at this time

METAR text: FABL 180800Z 01005KT 310V050 CAVOK 22/14 Q1022 NOSIG
Conditions at: FABL (BLOEMFONTEIN/HER, ZA) observed 0800 UTC 18 February 2019
Temperature: 22.0°C (72°F)
Dewpoint: 14.0°C (57°F) [RH = 60%]
Pressure (altimeter): 30.18 inches Hg (1022.0 mb)
Winds: from the N (10 degrees) at 6 MPH (5 knots; 2.6 m/s)
Visibility: 6 or more miles (10+ km)
Ceiling: ceiling and visibility are OK
Clouds: unknown
Weather: no significant weather observed at this time

METAR text: FABL 180700Z VRB04KT CAVOK 20/13 Q1022 NOSIG
Conditions at: FABL (BLOEMFONTEIN/HER, ZA) observed 0700 UTC 18 February 2019
Temperature: 20.0°C (68°F)
Dewpoint: 13.0°C (55°F) [RH = 64%]
Pressure (altimeter): 30.18 inches Hg (1022.0 mb)
Winds: variable direction winds at 5 MPH (4 knots; 2.1 m/s)
Visibility: 6 or more miles (10+ km)
Ceiling: ceiling and visibility are OK
Clouds: unknown
Weather: no significant weather observed at this time

METAR text: FABL 180600Z VRB02KT CAVOK 17/11 Q1022 NOSIG
Conditions at: FABL (BLOEMFONTEIN/HER, ZA) observed 0600 UTC 18 February 2019
Temperature: 17.0°C (63°F)
Dewpoint: 11.0°C (52°F) [RH = 68%]
Pressure (altimeter): 30.18 inches Hg (1022.0 mb)
Winds: variable direction winds at 2 MPH (2 knots; 1.0 m/s)
Visibility: 6 or more miles (10+ km)
Ceiling: ceiling and visibility are OK
Clouds: unknown
Weather: no significant weather observed at this time

METAR text: FABL 180500Z 18002KT CAVOK 15/12 Q1022 NOSIG
Conditions at: FABL (BLOEMFONTEIN/HER, ZA) observed 0500 UTC 18 February 2019
Temperature: 15.0°C (59°F)
Dewpoint: 12.0°C (54°F) [RH = 82%]
Pressure (altimeter): 30.18 inches Hg (1022.0 mb)
Winds: from the S (180 degrees) at 2 MPH (2 knots; 1.0 m/s)
Visibility: 6 or more miles (10+ km)
Ceiling: ceiling and visibility are OK
Clouds: unknown
Weather: no significant weather observed at this time

METAR text: FABL 180400Z 28002KT CAVOK 12/09 Q1021 NOSIG
Conditions at: FABL (BLOEMFONTEIN/HER, ZA) observed 0400 UTC 18 February 2019
Temperature: 12.0°C (54°F)
Dewpoint: 9.0°C (48°F) [RH = 82%]
Pressure (altimeter): 30.15 inches Hg (1021.0 mb)
Winds: from the W (280 degrees) at 2 MPH (2 knots; 1.0 m/s)
Visibility: 6 or more miles (10+ km)
Ceiling: ceiling and visibility are OK
Clouds: unknown
Weather: no significant weather observed at this time

METAR text: FABL 180300Z 00000KT CAVOK 12/10 Q1022 NOSIG
Conditions at: FABL (BLOEMFONTEIN/HER, ZA) observed 0300 UTC 18 February 2019
Temperature: 12.0°C (54°F)
Dewpoint: 10.0°C (50°F) [RH = 88%]
Pressure (altimeter): 30.18 inches Hg (1022.0 mb)
Winds: calm
Visibility: 6 or more miles (10+ km)
Ceiling: ceiling and visibility are OK
Clouds: unknown
Weather: no significant weather observed at this time

METAR text: FABL 180200Z AUTO 00000KT 9999 ///////// 13/10 Q1021
Conditions at: FABL (BLOEMFONTEIN/HER, ZA) observed 0200 UTC 18 February 2019
Temperature: 13.0°C (55°F)
Dewpoint: 10.0°C (50°F) [RH = 82%]
Pressure (altimeter): 30.15 inches Hg (1021.0 mb)
Winds: calm
Visibility: 6 or more miles (10+ km)
Ceiling: unknown
Clouds: missing
Weather: no significant weather observed at this time

METAR text: FABL 180100Z AUTO 31001KT 9999 ///////// 14/10 Q1021
Conditions at: FABL (BLOEMFONTEIN/HER, ZA) observed 0100 UTC 18 February 2019
Temperature: 14.0°C (57°F)
Dewpoint: 10.0°C (50°F) [RH = 77%]
Pressure (altimeter): 30.15 inches Hg (1021.0 mb)
Winds: from the NW (310 degrees) at 1 MPH (1 knots; 0.5 m/s)
Visibility: 6 or more miles (10+ km)
Ceiling: unknown
Clouds: missing
Weather: no significant weather observed at this time

METAR text: FABL 180000Z AUTO 20001KT 9999 ///////// 16/09 Q1021
Conditions at: FABL (BLOEMFONTEIN/HER, ZA) observed 0000 UTC 18 February 2019
Temperature: 16.0°C (61°F)
Dewpoint: 9.0°C (48°F) [RH = 63%]
Pressure (altimeter): 30.15 inches Hg (1021.0 mb)
Winds: from the SSW (200 degrees) at 1 MPH (1 knots; 0.5 m/s)
Visibility: 6 or more miles (10+ km)
Ceiling: unknown
Clouds: missing
Weather: no significant weather observed at this time

METAR text: FABL 172300Z AUTO VRB02KT 9999 ///////// 17/09 Q1022
Conditions at: FABL (BLOEMFONTEIN/HER, ZA) observed 2300 UTC 17 February 2019
Temperature: 17.0°C (63°F)
Dewpoint: 9.0°C (48°F) [RH = 59%]
Pressure (altimeter): 30.18 inches Hg (1022.0 mb)
Winds: variable direction winds at 2 MPH (2 knots; 1.0 m/s)
Visibility: 6 or more miles (10+ km)
Ceiling: unknown
Clouds: missing
Weather: no significant weather observed at this time

METAR text: FABL 172200Z AUTO 16006KT 9999 ///////// 16/09 Q1022
Conditions at: FABL (BLOEMFONTEIN/HER, ZA) observed 2200 UTC 17 February 2019
Temperature: 16.0°C (61°F)
Dewpoint: 9.0°C (48°F) [RH = 63%]
Pressure (altimeter): 30.18 inches Hg (1022.0 mb)
Winds: from the SSE (160 degrees) at 7 MPH (6 knots; 3.1 m/s)
Visibility: 6 or more miles (10+ km)
Ceiling: unknown
Clouds: missing
Weather: no significant weather observed at this time

METAR text: FABL 172100Z AUTO 17007KT 9999 ///////// 17/09 Q1022
Conditions at: FABL (BLOEMFONTEIN/HER, ZA) observed 2100 UTC 17 February 2019
Temperature: 17.0°C (63°F)
Dewpoint: 9.0°C (48°F) [RH = 59%]
Pressure (altimeter): 30.18 inches Hg (1022.0 mb)
Winds: from the S (170 degrees) at 8 MPH (7 knots; 3.6 m/s)
Visibility: 6 or more miles (10+ km)
Ceiling: unknown
Clouds: missing
Weather: no significant weather observed at this time

METAR text: FABL 172000Z AUTO 16007KT 9999 ///////// 19/10 Q1022
Conditions at: FABL (BLOEMFONTEIN/HER, ZA) observed 2000 UTC 17 February 2019
Temperature: 19.0°C (66°F)
Dewpoint: 10.0°C (50°F) [RH = 56%]
Pressure (altimeter): 30.18 inches Hg (1022.0 mb)
Winds: from the SSE (160 degrees) at 8 MPH (7 knots; 3.6 m/s)
Visibility: 6 or more miles (10+ km)
Ceiling: unknown
Clouds: missing
Weather: no significant weather observed at this time

METAR text: FABL 171900Z AUTO 16008KT 9999 ///////// 20/10 Q1021
Conditions at: FABL (BLOEMFONTEIN/HER, ZA) observed 1900 UTC 17 February 2019
Temperature: 20.0°C (68°F)
Dewpoint: 10.0°C (50°F) [RH = 53%]
Pressure (altimeter): 30.15 inches Hg (1021.0 mb)
Winds: from the SSE (160 degrees) at 9 MPH (8 knots; 4.1 m/s)
Visibility: 6 or more miles (10+ km)
Ceiling: unknown
Clouds: missing
Weather: no significant weather observed at this time

Forecast for: FABL (BLOEMFONTEIN/HER, ZA)
Text: TAF FABL 182200Z 1900/1924 03008KT CAVOK TX31/1913Z TN14/1904Z
Forecast period: 0000 to 0900 UTC 19 February 2019
Forecast type: FROM: standard forecast or significant change
Winds: from the NNE (30 degrees) at 9 MPH (8 knots; 4.1 m/s)
Visibility: 6 or more miles 10+ km)
Ceiling: unknown
Clouds: missing
Weather: no significant weather forecast for this period
Text: BECMG 1909/1911 34006KT SCT040
Forecast period: 0900 to 1800 UTC 19 February 2019
Forecast type: BECOMING: Conditions expected to become as follows by 1100 UTC 19 February 2019
Winds: from the NNW (340 degrees) at 7 MPH (6 knots; 3.1 m/s)
Visibility: 6 or more miles 10+ km)
Ceiling: at least 12,000 feet AGL
Clouds: scattered clouds at 4000 feet AGL
Weather: no significant weather forecast for this period
Text: FM191800 01005KT CAVOK
Forecast period: 1800 UTC 19 February 2019 to 0000 UTC 20 February 2019
Forecast type: FROM: standard forecast or significant change
Winds: from the N (10 degrees) at 6 MPH (5 knots; 2.6 m/s)
Visibility: 6 or more miles 10+ km)
Ceiling: unknown
Clouds: missing
Weather: NSW  (no significant weather)